Time;durP1;ratioP1;P1;durP2;ratioP2;P2;SDS_P1;SDS_P2;PMS_P1;PMS_P2;Temp;Humidity;BMP_temperature;BMP_pressure;BME280_temperature;BME280_humidity;BME280_pressure;Samples;Min_cycle;Max_cycle;Signal;HPM_P1;HPM_P2
2023/07/10 00:00:42;;;;;;;;;;;;;;;29.14;44.29;97296.84;4233827;28;5500;-67
2023/07/10 00:02:45;;;;;;;;;;;;;;;29.13;44.41;97293.31;4233646;28;5600;-67
2023/07/10 00:04:48;;;;;;;;;;;;;;;29.12;44.32;97286.25;4232807;28;5706;-67
2023/07/10 00:06:51;;;;;;;;;;;;;;;29.12;44.44;97288.97;4233781;28;5795;-67
2023/07/10 00:08:55;;;;;;;;;;;;;;;29.11;44.40;97286.53;4232999;28;5687;-67
2023/07/10 00:10:59;;;;;;;;;;;;;;;29.09;44.25;97286.81;4233814;28;5612;-67
2023/07/10 00:13:02;;;;;;;;;;;;;;;29.08;44.30;97282.50;4234446;28;5895;-66
2023/07/10 00:15:15;;;;;;;;;;;;;;;29.08;44.06;97289.84;4218562;28;5612;-67
2023/07/10 00:17:17;;;;;;;;;;;;;;;29.07;44.19;97280.06;4236673;28;5695;-67
2023/07/10 00:19:20;;;;;;;;;;;;;;;29.06;44.23;97282.00;4236956;28;5852;-67
2023/07/10 00:21:26;;;;;;;;;;;;;;;29.05;44.00;97276.84;4235800;28;7736;-66
2023/07/10 00:23:29;;;;;;;;;;;;;;;29.04;44.13;97280.69;4236389;28;5621;-67
2023/07/10 00:25:34;;;;;;;;;;;;;;;29.02;44.07;97278.25;4236455;28;5688;-67
2023/07/10 00:27:37;;;;;;;;;;;;;;;29.01;43.87;97278.56;4236812;28;5501;-67
2023/07/10 00:29:39;;;;;;;;;;;;;;;29.01;43.95;97281.28;4236525;28;5729;-67
2023/07/10 00:31:42;;;;;;;;;;;;;;;29.01;43.85;97273.94;4236423;28;5785;-67
2023/07/10 00:33:47;;;;;;;;;;;;;;;29.02;43.53;97280.19;4236338;28;5593;-66
2023/07/10 00:35:50;;;;;;;;;;;;;;;29.01;43.50;97279.38;4236556;28;5521;-67
2023/07/10 00:38:01;;;;;;;;;;;;;;;29.01;43.47;97287.53;4235366;28;7149;-67
2023/07/10 00:40:17;;;;;;;;;;;;;;;29.00;43.34;97285.94;4228398;28;5785;-67
2023/07/10 00:42:23;;;;;;;;;;;;;;;28.99;43.34;97285.13;4236484;28;5820;-67
2023/07/10 00:44:32;;;;;;;;;;;;;;;28.98;43.31;97288.94;4236486;28;5620;-67
2023/07/10 00:46:39;;;;;;;;;;;;;;;28.98;43.47;97288.94;4236062;28;5510;-67
2023/07/10 00:48:48;;;;;;;;;;;;;;;28.98;43.06;97290.84;4236281;28;5593;-67
2023/07/10 00:50:51;;;;;;;;;;;;;;;28.97;43.04;97298.19;4236335;28;5743;-66
2023/07/10 00:52:56;;;;;;;;;;;;;;;28.98;42.66;97305.25;4235751;28;5606;-67
2023/07/10 00:55:01;;;;;;;;;;;;;;;28.96;42.94;97302.03;4235543;28;6283;-67
2023/07/10 00:57:10;;;;;;;;;;;;;;;28.95;42.81;97303.13;4228154;28;5698;-67
2023/07/10 00:59:22;;;;;;;;;;;;;;;28.95;42.88;97321.38;4236233;28;6302;-67
2023/07/10 01:01:26;;;;;;;;;;;;;;;28.94;42.82;97320.56;4236141;28;5593;-67
2023/07/10 01:03:29;;;;;;;;;;;;;;;28.92;42.69;97322.78;4235223;28;5677;-67
2023/07/10 01:05:33;;;;;;;;;;;;;;;28.93;42.48;97326.31;4235247;28;5621;-67
2023/07/10 01:07:41;;;;;;;;;;;;;;;28.92;42.68;97332.88;4236215;28;5601;-67
2023/07/10 01:09:50;;;;;;;;;;;;;;;28.91;42.60;97337.50;4235527;28;5517;-67
2023/07/10 01:11:53;;;;;;;;;;;;;;;28.89;42.64;97334.28;4235310;28;5672;-67
2023/07/10 01:13:57;;;;;;;;;;;;;;;28.88;42.31;97332.66;4235722;28;5521;-67
2023/07/10 01:16:02;;;;;;;;;;;;;;;28.86;42.49;97332.09;4235754;28;6170;-66
2023/07/10 01:18:06;;;;;;;;;;;;;;;28.84;42.46;97336.22;4235802;28;5609;-67
2023/07/10 01:20:33;;;;;;;;;;;;;;;28.85;42.51;97340.56;4217708;28;5631;-67
2023/07/10 01:22:38;;;;;;;;;;;;;;;28.85;42.44;97344.09;4235885;28;5593;-67
2023/07/10 01:24:40;;;;;;;;;;;;;;;28.87;42.45;97341.88;4234535;28;5700;-67
2023/07/10 01:26:43;;;;;;;;;;;;;;;28.87;42.46;97339.16;4234753;28;5604;-67
2023/07/10 01:28:46;;;;;;;;;;;;;;;28.85;42.36;97337.84;4235585;28;5924;-67
2023/07/10 01:30:51;;;;;;;;;;;;;;;28.83;42.44;97330.00;4235391;28;5856;-67
2023/07/10 01:32:56;;;;;;;;;;;;;;;28.86;42.39;97340.28;4235590;28;5734;-66
2023/07/10 01:35:03;;;;;;;;;;;;;;;28.87;42.45;97332.91;4235367;28;5601;-67
2023/07/10 01:37:06;;;;;;;;;;;;;;;28.88;42.58;97327.22;4227650;28;7167;-67
2023/07/10 01:39:29;;;;;;;;;;;;;;;28.86;42.36;97329.38;4235521;28;5703;-67
2023/07/10 01:41:36;;;;;;;;;;;;;;;28.87;42.48;97339.16;4234779;28;5597;-66
2023/07/10 01:43:38;;;;;;;;;;;;;;;28.87;42.54;97347.31;4231210;28;5812;-67
2023/07/10 01:45:43;;;;;;;;;;;;;;;28.87;42.39;97341.88;4232395;28;7822;-67
2023/07/10 01:47:48;;;;;;;;;;;;;;;28.84;42.47;97342.47;4235080;28;5711;-67
2023/07/10 01:49:54;;;;;;;;;;;;;;;28.84;42.50;97336.22;4234546;28;5824;-67
2023/07/10 01:51:59;;;;;;;;;;;;;;;28.82;42.61;97333.81;4235508;28;5695;-67
2023/07/10 01:54:04;;;;;;;;;;;;;;;28.80;42.48;97336.03;4235028;28;5624;-66
2023/07/10 01:56:09;;;;;;;;;;;;;;;28.80;42.67;97341.47;4234538;28;5687;-67
2023/07/10 01:58:12;;;;;;;;;;;;;;;28.81;42.49;97331.41;4234514;28;7155;-67
2023/07/10 02:00:16;;;;;;;;;;;;;;;28.79;42.64;97339.88;4232866;27;5699;-67
2023/07/10 02:02:19;;;;;;;;;;;;;;;28.79;42.63;97334.41;4220422;28;5624;-66
2023/07/10 02:04:23;;;;;;;;;;;;;;;28.81;42.81;97334.94;4232563;27;5680;-67
2023/07/10 02:06:26;;;;;;;;;;;;;;;28.82;42.60;97336.53;4221880;27;5879;-67
2023/07/10 02:08:29;;;;;;;;;;;;;;;28.82;42.51;97333.81;4213711;28;5628;-67
2023/07/10 02:10:33;;;;;;;;;;;;;;;28.84;42.73;97336.22;4234177;28;5805;-67
2023/07/10 02:12:40;;;;;;;;;;;;;;;28.84;42.53;97322.63;4233721;28;5687;-67
2023/07/10 02:14:45;;;;;;;;;;;;;;;28.83;42.67;97323.75;4233664;28;5821;-66
2023/07/10 02:16:48;;;;;;;;;;;;;;;28.83;42.64;97330.00;4218735;27;5600;-67
2023/07/10 02:18:51;;;;;;;;;;;;;;;28.82;42.64;97333.81;4234857;28;5620;-67
2023/07/10 02:20:54;;;;;;;;;;;;;;;28.82;42.74;97341.97;4223410;27;5612;-66
2023/07/10 02:22:57;;;;;;;;;;;;;;;28.82;42.72;97333.00;4228985;28;5690;-66
2023/07/10 02:25:00;;;;;;;;;;;;;;;28.82;42.72;97338.44;4222666;27;5722;-66
2023/07/10 02:27:03;;;;;;;;;;;;;;;28.80;42.62;97336.03;4225485;27;5719;-67
2023/07/10 02:29:07;;;;;;;;;;;;;;;28.82;42.65;97333.81;4249039;27;5601;-67
2023/07/10 02:31:09;;;;;;;;;;;;;;;28.82;42.78;97330.28;4225785;27;5620;-66
2023/07/10 02:33:12;;;;;;;;;;;;;;;28.82;42.66;97327.56;4220347;27;5707;-66
2023/07/10 02:35:15;;;;;;;;;;;;;;;28.82;42.62;97328.38;4232390;27;5695;-66
2023/07/10 02:37:20;;;;;;;;;;;;;;;28.82;42.82;97328.38;4232461;27;5843;-67
2023/07/10 02:39:22;;;;;;;;;;;;;;;28.81;42.73;97332.19;4233047;28;5765;-66
2023/07/10 02:41:25;;;;;;;;;;;;;;;28.80;42.73;97341.47;4227740;27;5694;-66
2023/07/10 02:43:27;;;;;;;;;;;;;;;28.79;42.85;97334.41;4228402;27;5616;-66
2023/07/10 02:45:31;;;;;;;;;;;;;;;28.79;42.56;97339.06;4227393;27;6479;-66
2023/07/10 02:47:34;;;;;;;;;;;;;;;28.77;42.77;97343.97;4233615;27;5695;-66
2023/07/10 02:49:37;;;;;;;;;;;;;;;28.77;42.79;97341.25;4234056;27;5716;-66
2023/07/10 02:51:40;;;;;;;;;;;;;;;28.77;42.83;97335.81;4232333;27;5604;-66
2023/07/10 02:53:43;;;;;;;;;;;;;;;28.78;42.90;97337.44;4233800;27;5666;-66
2023/07/10 02:55:46;;;;;;;;;;;;;;;28.78;42.94;97337.44;4233741;27;5711;-66
2023/07/10 02:57:49;;;;;;;;;;;;;;;28.78;42.98;97340.16;4233526;27;5782;-66
2023/07/10 02:59:52;;;;;;;;;;;;;;;28.77;42.72;97335.81;4231778;28;5770;-66
2023/07/10 03:01:56;;;;;;;;;;;;;;;28.74;42.89;97339.94;4214778;28;5818;-66
2023/07/10 03:03:59;;;;;;;;;;;;;;;28.74;42.80;97341.84;4219277;27;5615;-66
2023/07/10 03:06:04;;;;;;;;;;;;;;;28.72;42.85;97342.13;4209282;28;5624;-66
2023/07/10 03:08:07;;;;;;;;;;;;;;;28.73;42.93;97335.59;4233235;27;5632;-66
2023/07/10 03:10:09;;;;;;;;;;;;;;;28.74;42.89;97334.47;4234867;27;5605;-66
2023/07/10 03:12:12;;;;;;;;;;;;;;;28.75;43.03;97343.47;4239298;27;5590;-66
2023/07/10 03:14:15;;;;;;;;;;;;;;;28.73;42.99;97340.22;4236070;27;5679;-66
2023/07/10 03:16:18;;;;;;;;;;;;;;;28.71;43.07;97337.81;4233778;28;5654;-66
2023/07/10 03:18:22;;;;;;;;;;;;;;;28.71;43.05;97343.25;4233910;28;5912;-66
2023/07/10 03:20:25;;;;;;;;;;;;;;;28.69;43.08;97340.03;4234254;28;5628;-66
2023/07/10 03:22:28;;;;;;;;;;;;;;;28.67;42.98;97336.78;4234060;28;5691;-66
2023/07/10 03:24:31;;;;;;;;;;;;;;;28.67;43.18;97334.88;4233100;28;6327;-66
2023/07/10 03:26:34;;;;;;;;;;;;;;;28.64;43.18;97331.94;4233022;28;5817;-67
2023/07/10 03:28:38;;;;;;;;;;;;;;;28.61;43.14;97333.34;4233915;28;5664;-66
2023/07/10 03:30:41;;;;;;;;;;;;;;;28.59;43.27;97332.81;4233972;28;5707;-66
2023/07/10 03:32:44;;;;;;;;;;;;;;;28.59;43.20;97332.03;4233849;28;5601;-66
2023/07/10 03:34:50;;;;;;;;;;;;;;;28.58;43.38;97333.94;4209168;28;5733;-66
2023/07/10 03:36:53;;;;;;;;;;;;;;;28.59;43.33;97329.31;4200386;28;5707;-66
2023/07/10 03:38:56;;;;;;;;;;;;;;;28.58;43.26;97336.66;4207905;28;5671;-66
2023/07/10 03:40:59;;;;;;;;;;;;;;;28.59;43.35;97329.31;4200076;28;6410;-66
2023/07/10 03:43:02;;;;;;;;;;;;;;;28.60;43.25;97347.22;4200315;28;5746;-66
2023/07/10 03:45:06;;;;;;;;;;;;;;;28.61;43.27;97348.84;4200353;28;5751;-66
2023/07/10 03:47:08;;;;;;;;;;;;;;;28.61;43.32;97349.66;4200169;28;5697;-66
2023/07/10 03:49:12;;;;;;;;;;;;;;;28.61;43.43;97359.72;4202898;28;5793;-66
2023/07/10 03:51:17;;;;;;;;;;;;;;;28.62;43.42;97366.78;4203299;28;5688;-67
2023/07/10 03:53:20;;;;;;;;;;;;;;;28.60;43.47;97369.81;4203312;28;5766;-67
2023/07/10 03:55:24;;;;;;;;;;;;;;;28.61;43.57;97365.16;4196666;28;5664;-67
2023/07/10 03:57:27;;;;;;;;;;;;;;;28.62;43.53;97366.78;4194654;28;5746;-66
2023/07/10 03:59:30;;;;;;;;;;;;;;;28.62;43.46;97366.78;4202654;28;6364;-66
2023/07/10 04:01:33;;;;;;;;;;;;;;;28.61;43.46;97374.13;4205688;28;5667;-66
2023/07/10 04:03:39;;;;;;;;;;;;;;;28.59;43.64;97372.81;4216382;28;6558;-66
2023/07/10 04:05:42;;;;;;;;;;;;;;;28.61;43.78;97382.28;4211064;28;5796;-66
2023/07/10 04:07:46;;;;;;;;;;;;;;;28.61;43.74;97387.72;4213797;28;5764;-66
2023/07/10 04:09:51;;;;;;;;;;;;;;;28.62;43.77;97388.53;4211563;28;5700;-67
2023/07/10 04:11:54;;;;;;;;;;;;;;;28.60;43.67;97390.75;4211686;28;5663;-66
2023/07/10 04:13:57;;;;;;;;;;;;;;;28.59;43.74;97389.94;4202245;28;5689;-67
2023/07/10 04:16:02;;;;;;;;;;;;;;;28.58;43.69;97393.78;4196127;28;5717;-66
2023/07/10 04:18:06;;;;;;;;;;;;;;;28.57;43.72;97402.22;4203416;28;5829;-66
2023/07/10 04:20:09;;;;;;;;;;;;;;;28.57;43.76;97402.22;4203198;28;5797;-66
2023/07/10 04:22:12;;;;;;;;;;;;;;;28.56;43.71;97400.63;4198179;28;5725;-66
2023/07/10 04:24:17;;;;;;;;;;;;;;;28.54;43.79;97413.69;4191115;28;5697;-66
2023/07/10 04:26:21;;;;;;;;;;;;;;;28.55;43.71;97420.75;4202895;28;5717;-67
2023/07/10 04:28:25;;;;;;;;;;;;;;;28.54;43.68;97408.25;4191187;28;5863;-66
2023/07/10 04:30:28;;;;;;;;;;;;;;;28.53;43.66;97412.06;4210019;28;5689;-66
2023/07/10 04:32:31;;;;;;;;;;;;;;;28.53;43.71;97415.59;4206899;28;5779;-66
2023/07/10 04:34:34;;;;;;;;;;;;;;;28.53;43.64;97409.34;4220405;28;5848;-66
2023/07/10 04:36:36;;;;;;;;;;;;;;;28.53;43.62;97415.59;4236194;28;5849;-66
2023/07/10 04:38:39;;;;;;;;;;;;;;;28.55;43.57;97418.03;4236591;28;6393;-66
2023/07/10 04:40:53;;;;;;;;;;;;;;;28.56;43.60;97419.66;4236461;28;5638;-66
2023/07/10 04:42:56;;;;;;;;;;;;;;;28.57;43.63;97413.09;4236436;28;5713;-66
2023/07/10 04:44:59;;;;;;;;;;;;;;;28.57;43.71;97411.19;4236503;28;5713;-66
2023/07/10 04:47:02;;;;;;;;;;;;;;;28.58;43.73;97409.28;4231660;28;5714;-66
2023/07/10 04:49:05;;;;;;;;;;;;;;;28.57;43.65;97413.91;4236539;28;5624;-66
2023/07/10 04:51:09;;;;;;;;;;;;;;;28.58;43.56;97414.72;4236191;28;6376;-67
2023/07/10 04:53:12;;;;;;;;;;;;;;;28.58;43.71;97414.72;4235922;28;5798;-66
2023/07/10 04:55:15;;;;;;;;;;;;;;;28.60;43.61;97423.41;4236320;28;5044;-66
2023/07/10 04:57:19;;;;;;;;;;;;;;;28.60;43.76;97423.41;4235931;28;5589;-66
2023/07/10 04:59:22;;;;;;;;;;;;;;;28.62;43.59;97423.91;4235714;28;5118;-66
2023/07/10 05:01:27;;;;;;;;;;;;;;;28.64;43.65;97429.84;4235556;28;5695;-66
2023/07/10 05:03:29;;;;;;;;;;;;;;;28.63;43.79;97430.97;4230821;28;5622;-66
2023/07/10 05:05:32;;;;;;;;;;;;;;;28.64;43.89;97443.47;4236287;28;5581;-66
2023/07/10 05:07:35;;;;;;;;;;;;;;;28.65;43.78;97445.06;4236167;28;5699;-66
2023/07/10 05:09:38;;;;;;;;;;;;;;;28.66;43.78;97449.44;4235975;28;5506;-66
2023/07/10 05:11:41;;;;;;;;;;;;;;;28.67;43.81;97451.06;4236201;28;5601;-66
2023/07/10 05:13:45;;;;;;;;;;;;;;;28.67;43.80;97448.34;4230076;28;5616;-66
2023/07/10 05:15:49;;;;;;;;;;;;;;;28.67;43.84;97445.63;4233081;28;5613;-66
2023/07/10 05:17:52;;;;;;;;;;;;;;;28.66;43.86;97444.00;4235308;28;5807;-66
2023/07/10 05:19:55;;;;;;;;;;;;;;;28.62;43.95;97441.03;4217977;28;5596;-66
2023/07/10 05:21:58;;;;;;;;;;;;;;;28.61;44.09;97446.78;4226771;28;5632;-67
2023/07/10 05:24:01;;;;;;;;;;;;;;;28.59;44.21;97438.91;4235133;28;5809;-67
2023/07/10 05:26:06;;;;;;;;;;;;;;;28.53;44.35;97441.97;4227616;28;5816;-67
2023/07/10 05:28:09;;;;;;;;;;;;;;;28.50;44.56;97440.66;4235782;28;5696;-67
2023/07/10 05:30:13;;;;;;;;;;;;;;;28.50;44.43;97448.81;4235635;28;5799;-67
2023/07/10 05:32:16;;;;;;;;;;;;;;;28.52;44.67;97443.09;4234962;28;5691;-67
2023/07/10 05:34:22;;;;;;;;;;;;;;;28.55;44.56;97437.09;4235295;28;6271;-67
2023/07/10 05:36:25;;;;;;;;;;;;;;;28.56;44.59;97439.50;4235750;28;5600;-67
2023/07/10 05:38:29;;;;;;;;;;;;;;;28.63;44.71;97436.41;4230393;27;5600;-66
2023/07/10 05:40:32;;;;;;;;;;;;;;;28.69;44.76;97437.97;4242531;27;5593;-66
2023/07/10 05:42:35;;;;;;;;;;;;;;;28.77;44.59;97445.47;4228946;27;5729;-67
2023/07/10 05:44:38;;;;;;;;;;;;;;;28.88;44.67;97435.25;4221952;28;5620;-66
2023/07/10 05:46:42;;;;;;;;;;;;;;;28.96;44.72;97438.09;4228804;28;5815;-66
2023/07/10 05:48:45;;;;;;;;;;;;;;;29.05;44.64;97437.44;4235761;28;5695;-67
2023/07/10 05:50:49;;;;;;;;;;;;;;;29.14;44.75;97435.66;4235504;28;5705;-67
2023/07/10 05:52:52;;;;;;;;;;;;;;;29.23;44.22;97433.88;4235269;28;5683;-67
2023/07/10 05:54:55;;;;;;;;;;;;;;;29.32;44.41;97442.16;4234199;28;5684;-67
2023/07/10 05:56:59;;;;;;;;;;;;;;;29.37;44.21;97431.19;4234665;28;5682;-67
2023/07/10 05:59:02;;;;;;;;;;;;;;;29.42;44.26;97442.81;4217046;28;6471;-67
2023/07/10 06:01:05;;;;;;;;;;;;;;;29.45;44.12;97444.94;4232260;28;5593;-67
2023/07/10 06:03:09;;;;;;;;;;;;;;;29.50;44.02;97436.69;4225276;28;5619;-67
2023/07/10 06:05:12;;;;;;;;;;;;;;;29.56;44.15;97440.97;4223331;28;5614;-67
2023/07/10 06:07:16;;;;;;;;;;;;;;;29.62;44.10;97440.84;4228380;28;6396;-72
2023/07/10 06:09:19;;;;;;;;;;;;;;;29.65;43.99;97445.69;4216425;28;5131;-66
2023/07/10 06:11:21;;;;;;;;;;;;;;;29.63;44.26;97453.38;4232965;28;6223;-69
2023/07/10 06:13:25;;;;;;;;;;;;;;;29.63;44.12;97450.66;4227618;28;5695;-67
2023/07/10 06:15:28;;;;;;;;;;;;;;;29.63;44.25;97446.00;4230895;28;5918;-67
2023/07/10 06:17:32;;;;;;;;;;;;;;;29.65;44.09;97453.88;4236952;27;5713;-64
2023/07/10 06:19:36;;;;;;;;;;;;;;;29.66;44.25;97455.50;4234189;28;5622;-67
2023/07/10 06:21:39;;;;;;;;;;;;;;;29.69;44.28;97454.91;4234958;28;5621;-67
2023/07/10 06:23:42;;;;;;;;;;;;;;;29.72;44.30;97452.38;4225426;28;5991;-67
2023/07/10 06:25:44;;;;;;;;;;;;;;;29.74;44.43;97457.53;4226162;28;5580;-67
2023/07/10 06:27:47;;;;;;;;;;;;;;;29.76;44.41;97460.75;4232006;28;5696;-67
2023/07/10 06:29:54;;;;;;;;;;;;;;;29.78;44.40;97461.25;4234356;28;6876;-67
2023/07/10 06:31:57;;;;;;;;;;;;;;;29.79;44.34;97457.44;4234136;28;5501;-66
2023/07/10 06:34:00;;;;;;;;;;;;;;;29.81;44.36;97455.22;4234311;28;5664;-67
2023/07/10 06:36:06;;;;;;;;;;;;;;;29.83;44.25;97450.28;4229725;28;5605;-67
2023/07/10 06:38:09;;;;;;;;;;;;;;;29.84;44.28;97451.88;4234420;28;5657;-67
2023/07/10 06:40:14;;;;;;;;;;;;;;;29.85;44.37;97458.94;4234460;28;5702;-67
2023/07/10 06:42:17;;;;;;;;;;;;;;;29.87;44.59;97451.28;4234354;28;5707;-67
2023/07/10 06:44:21;;;;;;;;;;;;;;;29.88;44.49;97450.16;4234241;28;5649;-67
2023/07/10 06:46:24;;;;;;;;;;;;;;;29.92;44.60;97450.38;4229440;28;5597;-62
2023/07/10 06:48:28;;;;;;;;;;;;;;;29.95;44.60;97461.50;4223636;28;5498;-67
2023/07/10 06:50:30;;;;;;;;;;;;;;;29.93;44.53;97455.53;4233642;28;5593;-67
2023/07/10 06:52:39;;;;;;;;;;;;;;;29.95;44.53;97455.22;4232744;28;5696;-67
2023/07/10 06:54:42;;;;;;;;;;;;;;;29.94;44.50;97456.34;4230606;27;5684;-67
2023/07/10 06:56:45;;;;;;;;;;;;;;;29.93;44.44;97452.00;4231330;27;5600;-68
2023/07/10 06:58:48;;;;;;;;;;;;;;;29.97;44.21;97461.19;4233464;28;5718;-68
2023/07/10 07:00:51;;;;;;;;;;;;;;;30.00;44.25;97463.28;4226047;27;6455;-68
2023/07/10 07:02:54;;;;;;;;;;;;;;;29.96;44.36;97465.81;4229901;27;5703;-69
2023/07/10 07:04:56;;;;;;;;;;;;;;;29.95;44.19;97464.22;4232537;27;5816;-78
2023/07/10 07:07:00;;;;;;;;;;;;;;;29.93;44.30;97466.44;4229772;27;5731;-71
2023/07/10 07:09:04;;;;;;;;;;;;;;;29.94;44.23;97473.50;4229058;28;6369;-76
2023/07/10 07:11:07;;;;;;;;;;;;;;;29.94;44.11;97472.69;4224855;27;6433;-77
2023/07/10 07:13:11;;;;;;;;;;;;;;;29.91;44.17;97471.38;4228103;27;5785;-71
2023/07/10 07:15:14;;;;;;;;;;;;;;;29.90;44.13;97461.59;4225274;27;5784;-68
2023/07/10 07:17:17;;;;;;;;;;;;;;;29.89;44.04;97470.84;4231030;28;5839;-69
2023/07/10 07:19:20;;;;;;;;;;;;;;;29.88;44.07;97469.25;4231992;27;5695;-67
2023/07/10 07:21:23;;;;;;;;;;;;;;;29.89;44.12;97468.13;4230301;27;5704;-65
2023/07/10 07:23:26;;;;;;;;;;;;;;;29.89;44.01;97470.84;4233867;27;5601;-73
2023/07/10 07:25:31;;;;;;;;;;;;;;;29.89;43.85;97468.13;4237440;28;5605;-78
2023/07/10 07:27:33;;;;;;;;;;;;;;;29.88;43.93;97457.53;4233349;27;5700;-78
2023/07/10 07:29:36;;;;;;;;;;;;;;;29.89;43.92;97470.84;4236771;27;5505;-72
2023/07/10 07:31:40;;;;;;;;;;;;;;;29.89;43.70;97476.31;4236439;28;5493;-65
2023/07/10 07:33:43;;;;;;;;;;;;;;;29.88;43.93;97465.72;4241327;27;5631;-77
2023/07/10 07:35:47;;;;;;;;;;;;;;;29.86;43.62;97466.03;4233690;27;5622;-81
2023/07/10 07:37:50;;;;;;;;;;;;;;;29.86;43.74;97468.75;4237954;27;6295;-68
2023/07/10 07:39:54;;;;;;;;;;;;;;;29.84;43.73;97468.25;4236385;28;5813;-67
2023/07/10 07:41:59;;;;;;;;;;;;;;;29.81;43.65;97463.41;4235459;28;5612;-66
2023/07/10 07:44:03;;;;;;;;;;;;;;;29.80;43.74;97462.59;4236091;28;5597;-74
2023/07/10 07:46:06;;;;;;;;;;;;;;;29.79;43.71;97460.19;4228113;27;5801;-72
2023/07/10 07:48:09;;;;;;;;;;;;;;;29.77;43.66;97465.09;4236585;28;5605;-66
2023/07/10 07:50:13;;;;;;;;;;;;;;;29.77;43.52;97467.81;4236751;28;5596;-59
2023/07/10 07:52:15;;;;;;;;;;;;;;;29.76;43.74;97464.28;4236490;28;5609;-67
2023/07/10 07:54:19;;;;;;;;;;;;;;;29.76;43.64;97472.47;4235453;28;5934;-59
2023/07/10 07:56:22;;;;;;;;;;;;;;;29.76;43.63;97466.19;4237305;27;5649;-61
2023/07/10 07:58:28;;;;;;;;;;;;;;;29.76;43.72;97472.47;4234497;27;5534;-68
2023/07/10 08:00:31;;;;;;;;;;;;;;;29.77;43.52;97476.00;4233154;28;6148;-61
2023/07/10 08:02:34;;;;;;;;;;;;;;;29.77;43.62;97470.53;4230857;28;5692;-61
2023/07/10 08:04:37;;;;;;;;;;;;;;;29.76;43.83;97464.28;4235829;28;5605;-74
2023/07/10 08:06:40;;;;;;;;;;;;;;;29.76;43.27;97460.75;4231348;27;5658;-81
2023/07/10 08:08:46;;;;;;;;;;;;;;;29.77;43.16;97468.63;4233092;27;5597;-77
2023/07/10 08:10:50;;;;;;;;;;;;;;;29.76;43.19;97466.19;4231543;27;5628;-70
2023/07/10 08:12:53;;;;;;;;;;;;;;;29.76;43.17;97460.75;4234028;28;5804;-73
2023/07/10 08:14:58;;;;;;;;;;;;;;;29.76;43.03;97460.75;4232121;27;5727;-70
2023/07/10 08:17:01;;;;;;;;;;;;;;;29.74;43.01;97468.44;4233015;28;6394;-73
2023/07/10 08:19:05;;;;;;;;;;;;;;;29.72;42.85;97457.84;4228031;28;5684;-73
2023/07/10 08:21:10;;;;;;;;;;;;;;;29.71;42.77;97455.41;4233256;27;5734;-79
2023/07/10 08:23:13;;;;;;;;;;;;;;;29.73;42.72;97458.63;4234567;27;5778;-69
2023/07/10 08:25:16;;;;;;;;;;;;;;;29.75;42.64;97464.59;4231970;27;5688;-70
2023/07/10 08:27:19;;;;;;;;;;;;;;;29.75;42.75;97470.03;4235048;28;5680;-72
2023/07/10 08:29:27;;;;;;;;;;;;;;;29.75;42.64;97459.13;4234919;28;5586;-76
2023/07/10 08:31:31;;;;;;;;;;;;;;;29.73;42.69;97462.16;4233558;27;5699;-71
2023/07/10 08:33:35;;;;;;;;;;;;;;;29.73;42.54;97466.81;4235625;28;6898;-79
2023/07/10 08:35:38;;;;;;;;;;;;;;;29.74;42.48;97458.34;4234040;27;5945;-74
2023/07/10 08:37:41;;;;;;;;;;;;;;;29.73;42.70;97459.44;4232826;27;5608;-65
2023/07/10 08:39:43;;;;;;;;;;;;;;;29.70;42.72;97461.97;4233656;27;5732;-67
2023/07/10 08:41:50;;;;;;;;;;;;;;;29.70;42.62;97467.41;4233832;27;5617;-66
2023/07/10 08:43:53;;;;;;;;;;;;;;;29.73;42.80;97459.44;4233634;27;5717;-79
2023/07/10 08:46:04;;;;;;;;;;;;;;;29.74;42.59;97452.06;4234918;27;5501;-67
2023/07/10 08:48:22;;;;;;;;;;;;;;;29.74;42.77;97457.53;4232367;27;5695;-65
2023/07/10 08:50:31;;;;;;;;;;;;;;;29.75;42.72;97462.66;4229023;28;5597;-66
2023/07/10 08:52:40;;;;;;;;;;;;;;;29.77;42.57;97451.47;4230505;27;5594;-67
2023/07/10 08:54:46;;;;;;;;;;;;;;;29.77;42.79;97454.19;4234825;27;5696;-74
2023/07/10 08:57:01;;;;;;;;;;;;;;;29.77;42.37;97441.38;4236012;28;5668;-76
2023/07/10 08:59:16;;;;;;;;;;;;;;;29.78;42.71;97440.25;4236007;27;5752;-60
2023/07/10 09:01:29;;;;;;;;;;;;;;;29.83;42.74;97450.28;4228705;28;5694;-62
2023/07/10 09:03:41;;;;;;;;;;;;;;;29.81;42.68;97447.84;4228040;28;5755;-60
2023/07/10 09:05:50;;;;;;;;;;;;;;;29.83;42.70;97455.72;4227921;28;5802;-61
2023/07/10 09:07:56;;;;;;;;;;;;;;;29.83;42.45;97450.28;4225427;28;5700;-62
2023/07/10 09:10:03;;;;;;;;;;;;;;;29.81;42.38;97439.69;4227489;28;5837;-61
2023/07/10 09:12:13;;;;;;;;;;;;;;;29.87;42.38;97451.28;4232809;28;5613;-62
2023/07/10 09:14:35;;;;;;;;;;;;;;;29.90;42.26;97449.84;4233069;28;5597;-68
2023/07/10 09:16:38;;;;;;;;;;;;;;;29.93;42.53;97450.09;4215387;28;5741;-66
2023/07/10 09:18:49;;;;;;;;;;;;;;;29.92;42.53;97447.66;4233544;28;5613;-70
2023/07/10 09:20:57;;;;;;;;;;;;;;;29.92;42.75;97448.47;4235119;27;5747;-67
2023/07/10 09:23:02;;;;;;;;;;;;;;;29.93;42.65;97444.63;4231499;28;5778;-72
2023/07/10 09:25:12;;;;;;;;;;;;;;;29.94;42.55;97446.25;4225259;28;5796;-71
2023/07/10 09:27:16;;;;;;;;;;;;;;;29.94;42.51;97450.88;4233370;28;5795;-75
2023/07/10 09:29:34;;;;;;;;;;;;;;;29.96;42.33;97444.03;4234345;28;5790;-70
2023/07/10 09:31:46;;;;;;;;;;;;;;;29.99;42.60;97434.41;4234914;28;5743;-69
2023/07/10 09:33:59;;;;;;;;;;;;;;;29.99;42.39;97443.41;4234599;28;5506;-72
2023/07/10 09:36:02;;;;;;;;;;;;;;;30.00;42.41;97439.56;4235032;28;5860;-62
2023/07/10 09:38:06;;;;;;;;;;;;;;;30.01;42.52;97443.91;4233633;28;5694;-71
2023/07/10 09:40:36;;;;;;;;;;;;;;;30.03;42.60;97440.91;4234935;28;5614;-73
2023/07/10 09:42:42;;;;;;;;;;;;;;;30.02;42.46;97440.09;4231306;28;5717;-63
2023/07/10 09:44:48;;;;;;;;;;;;;;;30.02;42.55;97437.38;4234567;28;5782;-69
2023/07/10 09:47:02;;;;;;;;;;;;;;;30.03;42.40;97438.97;4233336;28;5877;-67
2023/07/10 09:49:19;;;;;;;;;;;;;;;30.05;42.14;97434.03;4235238;28;5490;-70
2023/07/10 09:51:23;;;;;;;;;;;;;;;30.05;42.39;97436.75;4234614;28;5872;-72
2023/07/10 09:53:31;;;;;;;;;;;;;;;30.05;42.16;97431.31;4229249;27;5589;-64
2023/07/10 09:55:44;;;;;;;;;;;;;;;30.05;41.91;97436.75;4234263;28;5653;-71
2023/07/10 09:57:54;;;;;;;;;;;;;;;30.07;42.12;97440.00;4234863;28;5830;-69
2023/07/10 09:59:59;;;;;;;;;;;;;;;30.08;42.13;97436.16;4233676;28;5538;-72
2023/07/10 10:02:17;;;;;;;;;;;;;;;30.08;41.86;97430.72;4225835;28;5696;-66
2023/07/10 10:04:26;;;;;;;;;;;;;;;30.09;41.88;97431.53;4234027;28;5719;-66
2023/07/10 10:06:30;;;;;;;;;;;;;;;30.08;41.86;97430.72;4234847;28;5096;-69
2023/07/10 10:08:46;;;;;;;;;;;;;;;30.07;41.76;97426.38;4233744;27;5597;-68
2023/07/10 10:11:01;;;;;;;;;;;;;;;30.06;41.80;97422.03;4234624;28;5695;-64
2023/07/10 10:13:13;;;;;;;;;;;;;;;30.07;41.84;97433.75;4233517;28;5664;-72
2023/07/10 10:15:23;;;;;;;;;;;;;;;30.07;41.63;97417.41;4233922;28;7034;-66
2023/07/10 10:17:27;;;;;;;;;;;;;;;30.06;41.84;97419.31;4234123;28;5691;-63
2023/07/10 10:19:37;;;;;;;;;;;;;;;30.07;41.67;97420.94;4233917;28;5617;-72
2023/07/10 10:21:41;;;;;;;;;;;;;;;30.08;41.63;97424.47;4234299;28;6397;-71
2023/07/10 10:23:46;;;;;;;;;;;;;;;30.09;41.58;97423.34;4233972;28;5899;-73
2023/07/10 10:25:52;;;;;;;;;;;;;;;30.09;41.64;97420.63;4232680;27;6291;-70
2023/07/10 10:28:01;;;;;;;;;;;;;;;30.09;41.75;97424.16;4230664;28;7705;-69
2023/07/10 10:30:18;;;;;;;;;;;;;;;30.11;41.72;97423.84;4234061;28;5609;-70
2023/07/10 10:32:30;;;;;;;;;;;;;;;30.11;41.92;97416.47;4234042;28;5925;-71
2023/07/10 10:34:46;;;;;;;;;;;;;;;30.12;41.88;97420.81;4225109;28;5545;-65
2023/07/10 10:37:04;;;;;;;;;;;;;;;30.13;42.21;97419.72;4232178;28;5687;-73
2023/07/10 10:39:20;;;;;;;;;;;;;;;30.13;41.79;97417.00;4234220;28;5069;-65
2023/07/10 10:41:47;;;;;;;;;;;;;;;30.14;42.28;97417.81;4234139;28;5702;-66
2023/07/10 10:43:57;;;;;;;;;;;;;;;30.14;42.20;97410.44;4231784;28;5599;-71
2023/07/10 10:46:04;;;;;;;;;;;;;;;30.16;42.36;97414.78;4233076;28;5609;-66
2023/07/10 10:48:17;;;;;;;;;;;;;;;30.18;42.36;97407.09;4226032;28;5751;-68
2023/07/10 10:50:43;;;;;;;;;;;;;;;30.20;42.50;97410.31;4231599;27;5586;-63
2023/07/10 10:53:02;;;;;;;;;;;;;;;30.21;42.69;97409.19;4224268;28;7060;-67
2023/07/10 10:55:34;;;;;;;;;;;;;;;30.21;42.47;97401.81;4214078;28;5889;-63
2023/07/10 10:57:47;;;;;;;;;;;;;;;30.23;42.54;97393.34;4213219;27;5691;-64
2023/07/10 10:59:59;;;;;;;;;;;;;;;30.25;42.69;97399.31;4232596;27;5676;-64
2023/07/10 11:02:22;;;;;;;;;;;;;;;30.26;42.74;97395.47;4230537;27;5787;-62